Des Moines, IA (50334)

4:34 AM CDT on May 25, 2015 (GMT -0500)
Des Moines WNW | | Change Station
CLOSE
Current Station
Personal Weather Station
Location: Des Moines, IA
Elevation: 869 ft
Nearby Weather Stations

Elev 869 ft 41.61 °N, 93.70 °W | Updated 4 seconds ago

Rain
Rain
63.1 °F
Feels Like 63.1 °F
N
6.3
Wind Variable Wind from SW
Gusts 6.3 mph

Today
High -- | Low -- °F
--% Chance of Precip.
Yesterday
High -- | Low -- °F
Precip. -- in
5:47 AM 8:36 PM
Waxing Crescent, 47% visible
Pressure 29.75 in
Visibility 10.0 miles
Clouds Overcast 8000 ft
Dew Point 23 °F
Humidity 21%
Rainfall 0.14 in
Snow Depth Not available.
UV 0 out of 12
Pollen 1.80 out of 12
Air Quality Not available.
Flu Activity Sporadic
METAR KDSM 250854Z 21008KT 10SM -DZ OVC080 18/16 A2975

More Conditions Fewer Conditions

Pressure 29.75 in
Visibility 10.0 miles
Clouds Overcast 8000 ft
Dew Point 23 °F
Humidity 21%
Rainfall 0.14 in
Snow Depth Not available.
UV 0 out of 12
Pollen 1.80 out of 12
Air Quality Not available.
Flu Activity Sporadic
METAR KDSM 250854Z 21008KT 10SM -DZ OVC080 18/16 A2975

More Conditions Fewer Conditions

10-Day Weather Forecast

Almanac

Astronomy

May. 25, 2015 Rise Set
Actual Time
Civil Twilight
Nautical Twilight
Astronomical Twilight
Moon
Length of Visible Light
Length of Day
Tomorrow will be .
, % of the Moon is Illuminated

Today's Extremes

State Highs State Lows

Community

WunderPhotos

Upload Photos

1,823,960 photos uploaded!

WunderBlogs® & News

Nearby

Air Quality

  Air Quality AQ Index Pollutant
Not available.

Snow Depth

Station Depth Elevation

Earthquake Activity

City Distance Mag. Time & Date
Minimum magnitude displayed is 2.5.

Coastal Water Temperatures

Place Temperature

Stations

Nearby Weather Stations

Station Location Temp. Windchill Dew Point Humidity Wind Precip. Elev Updated Type